Wilson Lista — 8PRW — position and weather

sailwx.info

Track history (hours):
 
Tides and Currents Weather Stations Pressure Air Temp Water Temp Dewpoint Dewpoint Depression Visibility Wind Speed Wind Dir Waves Ship Positions

Wilson Lista

Last reported at 2015-May-24 03:33 UTC. Time now 2015-May-24 17:20 UTC.
Position N 66°08' E 012°40'.

Length 88 m; draft 5.6 m.

Type: Cargo ship. MMSI: 314188000.

Date/timePositionNaut miles runAvg speedWind from/ knotsBaromVisibWave heightAir tempDewpointWater temp
2015-May-24 03:33N 66°08' E 012°40'8 7.9
2015-May-24 02:33N 66°15' E 012°32'  
2015-May-20 04:33N 53°51' E 000°31'7 6.9
2015-May-20 03:33N 53°45' E 000°27'7 7.2
2015-May-20 02:34N 53°38' E 000°22'8 8.1
2015-May-20 01:34N 53°33' E 000°12'1010.0
2015-May-20 00:33N 53°36' W 000°03'5 5.0
2015-May-19 23:32N 53°38' W 000°12'0 0.1
2015-May-19 22:32N 53°38' W 000°12'0 0.0
2015-May-19 21:32N 53°38' W 000°12'0 0.0
2015-May-19 20:28N 53°38' W 000°12'0 0.0
2015-May-19 19:31N 53°38' W 000°12'0 0.0
2015-May-19 18:33N 53°38' W 000°12'0 0.0
2015-May-19 17:30N 53°38' W 000°12'0 0.0
2015-May-19 16:32N 53°38' W 000°12'0 0.0
2015-May-19 15:31N 53°38' W 000°12'0 0.0
2015-May-19 14:33N 53°38' W 000°12'0 0.0
2015-May-19 13:33N 53°38' W 000°12'0 0.0
2015-May-19 12:27N 53°38' W 000°12'0 0.0
2015-May-19 11:33N 53°38' W 000°12'0 0.0
2015-May-19 10:33N 53°38' W 000°12'0 0.0
2015-May-19 09:32N 53°38' W 000°12'0 0.0
2015-May-19 08:32N 53°38' W 000°12'0 0.0
2015-May-19 07:32N 53°38' W 000°12'0 0.0
2015-May-19 06:32N 53°38' W 000°12'0 0.0
2015-May-19 05:31N 53°38' W 000°12'0 0.0
2015-May-19 04:30N 53°38' W 000°12'0 0.0
2015-May-19 03:19N 53°38' W 000°12'0 0.0
2015-May-19 02:31N 53°38' W 000°12'0 0.0
2015-May-19 01:04N 53°38' W 000°12'0 0.0
2015-May-19 00:27N 53°38' W 000°12'0 0.0
2015-May-18 23:30N 53°38' W 000°12'0 0.0
2015-May-18 22:32N 53°38' W 000°12'0 0.0
2015-May-18 21:29N 53°38' W 000°12'0 0.0
2015-May-18 20:19N 53°38' W 000°12'0 0.0
2015-May-18 19:22N 53°38' W 000°12'0 0.0
2015-May-18 18:28N 53°38' W 000°12'0 0.0
2015-May-18 17:30N 53°38' W 000°12'0 0.0
2015-May-18 16:33N 53°38' W 000°12'0 0.0
2015-May-18 15:29N 53°38' W 000°12'0 0.0
2015-May-18 14:29N 53°38' W 000°12'0 0.0
2015-May-18 13:32N 53°38' W 000°12'0 0.0
2015-May-18 12:32N 53°38' W 000°12'0 0.0
2015-May-18 11:32N 53°38' W 000°12'0 0.0
2015-May-18 10:29N 53°38' W 000°12'0 0.0
2015-May-18 09:25N 53°38' W 000°12'0 0.0
2015-May-18 08:32N 53°38' W 000°12'0 0.0
2015-May-18 07:32N 53°38' W 000°12'0 0.0
2015-May-18 06:32N 53°38' W 000°12'0 0.0
2015-May-18 05:31N 53°38' W 000°12'0 0.0
2015-May-18 04:25N 53°38' W 000°12'0 0.0
2015-May-18 03:33N 53°38' W 000°12'0 0.0
2015-May-18 02:33N 53°38' W 000°12'0 0.0
2015-May-18 01:33N 53°38' W 000°12'0 0.0
2015-May-18 00:32N 53°38' W 000°12'0 0.0
2015-May-17 23:29N 53°38' W 000°12'0 0.0
2015-May-17 22:31N 53°38' W 000°12'0 0.0
2015-May-17 21:31N 53°38' W 000°12'0 0.0
2015-May-17 20:33N 53°38' W 000°12'0 0.0
2015-May-17 19:33N 53°38' W 000°12'0 0.0
2015-May-17 18:33N 53°38' W 000°12'0 0.0
2015-May-17 17:32N 53°38' W 000°12'0 0.0
2015-May-17 16:26N 53°38' W 000°12'0 0.0
2015-May-17 15:28N 53°38' W 000°12'0 0.0
2015-May-17 14:26N 53°38' W 000°12'0 0.0
2015-May-17 13:28N 53°38' W 000°12'0 0.0
2015-May-17 12:28N 53°38' W 000°12'0 0.0
2015-May-17 11:34N 53°38' W 000°12'0 0.0
2015-May-17 10:31N 53°38' W 000°12'0 0.0
2015-May-17 09:28N 53°38' W 000°12'0 0.0
2015-May-17 08:28N 53°38' W 000°12'0 0.0
2015-May-17 07:31N 53°38' W 000°12'0 0.0
2015-May-17 06:33N 53°38' W 000°12'0 0.0
2015-May-17 05:33N 53°38' W 000°12'0 0.0
2015-May-17 04:32N 53°38' W 000°12'0 0.0
2015-May-17 03:31N 53°38' W 000°12'0 0.0
2015-May-17 02:33N 53°38' W 000°12'0 0.0
2015-May-17 01:33N 53°38' W 000°12'0 0.0
2015-May-17 00:32N 53°38' W 000°12'0 0.0
2015-May-16 23:32N 53°38' W 000°12'0 0.0
2015-May-16 22:31N 53°38' W 000°12'0 0.0
2015-May-16 21:31N 53°38' W 000°12'0 0.0
2015-May-16 20:33N 53°38' W 000°12'0 0.0
2015-May-16 19:30N 53°38' W 000°12'0 0.0
2015-May-16 18:33N 53°38' W 000°12'0 0.0
2015-May-16 17:32N 53°38' W 000°12'0 0.0
2015-May-16 16:32N 53°38' W 000°12'0 0.0
2015-May-16 15:28N 53°38' W 000°12'0 0.0
2015-May-16 14:28N 53°38' W 000°12'0 0.0
2015-May-16 13:28N 53°38' W 000°12'0 0.0
2015-May-16 12:33N 53°38' W 000°12'0 0.0
2015-May-16 11:33N 53°38' W 000°12'0 0.0
2015-May-16 10:33N 53°38' W 000°12'1 0.6
2015-May-16 09:34N 53°38' W 000°11'5 5.3
2015-May-16 08:34N 53°36' W 000°03'7 7.0
2015-May-16 07:33N 53°34' E 000°08'8 7.6
2015-May-16 06:33N 53°31' E 000°20'40 4.7
2015-May-15 22:09N 53°14' E 001°21'5 8.4
2015-May-15 21:34N 53°11' E 001°28'9 9.1
2015-May-15 20:33N 53°07' E 001°41'8 8.4
2015-May-15 19:33N 53°03' E 001°54'28 8.1
2015-May-15 16:07N 52°53' E 002°36'7 8.5
2015-May-15 15:18N 52°50' E 002°47'7 9.1
2015-May-15 14:29N 52°48' E 002°58'28 9.0
2015-May-15 11:24N 52°38' E 003°41'9 9.2
2015-May-15 10:27N 52°34' E 003°55'9 9.7
2015-May-15 09:33N 52°31' E 004°08'7 6.8
2015-May-15 08:33N 52°31' E 004°19'0 0.0
2015-May-15 07:32N 52°31' E 004°19'0 0.0
2015-May-15 06:32N 52°31' E 004°19'0 0.0
2015-May-15 05:31N 52°31' E 004°19'0 0.0
2015-May-15 04:28N 52°31' E 004°19'0 0.0
2015-May-15 03:33N 52°31' E 004°19'0 0.1
2015-May-15 02:33N 52°31' E 004°19'0 0.0
2015-May-15 01:32N 52°31' E 004°19'0 0.0
2015-May-15 00:29N 52°31' E 004°20'0 0.0
2015-May-14 23:32N 52°31' E 004°19'0 0.1
2015-May-14 22:31N 52°31' E 004°19'0 0.0
2015-May-14 21:31N 52°31' E 004°19'0 0.0
2015-May-14 20:33N 52°31' E 004°19'0 0.0
2015-May-14 19:33N 52°31' E 004°19'0 0.0
2015-May-14 18:33N 52°31' E 004°19'0 0.0
2015-May-14 17:32N 52°31' E 004°19'0 0.0
2015-May-14 16:29N 52°31' E 004°19'0 0.0
2015-May-14 15:31N 52°31' E 004°19'0 0.0
2015-May-14 14:31N 52°31' E 004°19'0 0.0
2015-May-14 10:06N 52°31' E 004°20'0 0.1
2015-May-14 09:33N 52°31' E 004°19'0 0.0
2015-May-14 08:32N 52°31' E 004°19'0 0.0
2015-May-14 07:32N 52°31' E 004°20'0 0.0
2015-May-14 06:33N 52°31' E 004°20'0 0.0
2015-May-14 05:33N 52°31' E 004°20'0 0.0
2015-May-14 04:32N 52°31' E 004°20'  
Track history (hours):
 
Tides and Currents Weather Stations Pressure Air Temp Water Temp Dewpoint Dewpoint Depression Visibility Wind Speed Wind Dir Waves Ship Positions

Wilson Lista

Last reported at 2015-May-24 03:33 UTC. Time now 2015-May-24 17:20 UTC.
Position N 66°08' E 012°40'.

Length 88 m; draft 5.6 m.

Type: Cargo ship. MMSI: 314188000.

Date/timePositionNaut miles runAvg speedWind from/ knotsBaromVisibWave heightAir tempDewpointWater temp
2015-May-24 03:33N 66°08' E 012°40'8 7.9
2015-May-24 02:33N 66°15' E 012°32'  
2015-May-20 04:33N 53°51' E 000°31'7 6.9
2015-May-20 03:33N 53°45' E 000°27'7 7.2
2015-May-20 02:34N 53°38' E 000°22'8 8.1
2015-May-20 01:34N 53°33' E 000°12'1010.0
2015-May-20 00:33N 53°36' W 000°03'5 5.0
2015-May-19 23:32N 53°38' W 000°12'0 0.1
2015-May-19 22:32N 53°38' W 000°12'0 0.0
2015-May-19 21:32N 53°38' W 000°12'0 0.0
2015-May-19 20:28N 53°38' W 000°12'0 0.0
2015-May-19 19:31N 53°38' W 000°12'0 0.0
2015-May-19 18:33N 53°38' W 000°12'0 0.0
2015-May-19 17:30N 53°38' W 000°12'0 0.0
2015-May-19 16:32N 53°38' W 000°12'0 0.0
2015-May-19 15:31N 53°38' W 000°12'0 0.0
2015-May-19 14:33N 53°38' W 000°12'0 0.0
2015-May-19 13:33N 53°38' W 000°12'0 0.0
2015-May-19 12:27N 53°38' W 000°12'0 0.0
2015-May-19 11:33N 53°38' W 000°12'0 0.0
2015-May-19 10:33N 53°38' W 000°12'0 0.0
2015-May-19 09:32N 53°38' W 000°12'0 0.0
2015-May-19 08:32N 53°38' W 000°12'0 0.0
2015-May-19 07:32N 53°38' W 000°12'0 0.0
2015-May-19 06:32N 53°38' W 000°12'0 0.0
2015-May-19 05:31N 53°38' W 000°12'0 0.0
2015-May-19 04:30N 53°38' W 000°12'0 0.0
2015-May-19 03:19N 53°38' W 000°12'0 0.0
2015-May-19 02:31N 53°38' W 000°12'0 0.0
2015-May-19 01:04N 53°38' W 000°12'0 0.0
2015-May-19 00:27N 53°38' W 000°12'0 0.0
2015-May-18 23:30N 53°38' W 000°12'0 0.0
2015-May-18 22:32N 53°38' W 000°12'0 0.0
2015-May-18 21:29N 53°38' W 000°12'0 0.0
2015-May-18 20:19N 53°38' W 000°12'0 0.0
2015-May-18 19:22N 53°38' W 000°12'0 0.0
2015-May-18 18:28N 53°38' W 000°12'0 0.0
2015-May-18 17:30N 53°38' W 000°12'0 0.0
2015-May-18 16:33N 53°38' W 000°12'0 0.0
2015-May-18 15:29N 53°38' W 000°12'0 0.0
2015-May-18 14:29N 53°38' W 000°12'0 0.0
2015-May-18 13:32N 53°38' W 000°12'0 0.0
2015-May-18 12:32N 53°38' W 000°12'0 0.0
2015-May-18 11:32N 53°38' W 000°12'0 0.0
2015-May-18 10:29N 53°38' W 000°12'0 0.0
2015-May-18 09:25N 53°38' W 000°12'0 0.0
2015-May-18 08:32N 53°38' W 000°12'0 0.0
2015-May-18 07:32N 53°38' W 000°12'0 0.0
2015-May-18 06:32N 53°38' W 000°12'0 0.0
2015-May-18 05:31N 53°38' W 000°12'0 0.0
2015-May-18 04:25N 53°38' W 000°12'0 0.0
2015-May-18 03:33N 53°38' W 000°12'0 0.0
2015-May-18 02:33N 53°38' W 000°12'0 0.0
2015-May-18 01:33N 53°38' W 000°12'0 0.0
2015-May-18 00:32N 53°38' W 000°12'0 0.0
2015-May-17 23:29N 53°38' W 000°12'0 0.0
2015-May-17 22:31N 53°38' W 000°12'0 0.0
2015-May-17 21:31N 53°38' W 000°12'0 0.0
2015-May-17 20:33N 53°38' W 000°12'0 0.0
2015-May-17 19:33N 53°38' W 000°12'0 0.0
2015-May-17 18:33N 53°38' W 000°12'0 0.0
2015-May-17 17:32N 53°38' W 000°12'0 0.0
2015-May-17 16:26N 53°38' W 000°12'0 0.0
2015-May-17 15:28N 53°38' W 000°12'0 0.0
2015-May-17 14:26N 53°38' W 000°12'0 0.0
2015-May-17 13:28N 53°38' W 000°12'0 0.0
2015-May-17 12:28N 53°38' W 000°12'0 0.0
2015-May-17 11:34N 53°38' W 000°12'0 0.0
2015-May-17 10:31N 53°38' W 000°12'0 0.0
2015-May-17 09:28N 53°38' W 000°12'0 0.0
2015-May-17 08:28N 53°38' W 000°12'0 0.0
2015-May-17 07:31N 53°38' W 000°12'0 0.0
2015-May-17 06:33N 53°38' W 000°12'0 0.0
2015-May-17 05:33N 53°38' W 000°12'0 0.0
2015-May-17 04:32N 53°38' W 000°12'0 0.0
2015-May-17 03:31N 53°38' W 000°12'0 0.0
2015-May-17 02:33N 53°38' W 000°12'0 0.0
2015-May-17 01:33N 53°38' W 000°12'0 0.0
2015-May-17 00:32N 53°38' W 000°12'0 0.0
2015-May-16 23:32N 53°38' W 000°12'0 0.0
2015-May-16 22:31N 53°38' W 000°12'0 0.0
2015-May-16 21:31N 53°38' W 000°12'0 0.0
2015-May-16 20:33N 53°38' W 000°12'0 0.0
2015-May-16 19:30N 53°38' W 000°12'0 0.0
2015-May-16 18:33N 53°38' W 000°12'0 0.0
2015-May-16 17:32N 53°38' W 000°12'0 0.0
2015-May-16 16:32N 53°38' W 000°12'0 0.0
2015-May-16 15:28N 53°38' W 000°12'0 0.0
2015-May-16 14:28N 53°38' W 000°12'0 0.0
2015-May-16 13:28N 53°38' W 000°12'0 0.0
2015-May-16 12:33N 53°38' W 000°12'0 0.0
2015-May-16 11:33N 53°38' W 000°12'0 0.0
2015-May-16 10:33N 53°38' W 000°12'1 0.6
2015-May-16 09:34N 53°38' W 000°11'5 5.3
2015-May-16 08:34N 53°36' W 000°03'7 7.0
2015-May-16 07:33N 53°34' E 000°08'8 7.6
2015-May-16 06:33N 53°31' E 000°20'40 4.7
2015-May-15 22:09N 53°14' E 001°21'5 8.4
2015-May-15 21:34N 53°11' E 001°28'9 9.1
2015-May-15 20:33N 53°07' E 001°41'8 8.4
2015-May-15 19:33N 53°03' E 001°54'28 8.1
2015-May-15 16:07N 52°53' E 002°36'7 8.5
2015-May-15 15:18N 52°50' E 002°47'7 9.1
2015-May-15 14:29N 52°48' E 002°58'28 9.0
2015-May-15 11:24N 52°38' E 003°41'9 9.2
2015-May-15 10:27N 52°34' E 003°55'9 9.7
2015-May-15 09:33N 52°31' E 004°08'7 6.8
2015-May-15 08:33N 52°31' E 004°19'0 0.0
2015-May-15 07:32N 52°31' E 004°19'0 0.0
2015-May-15 06:32N 52°31' E 004°19'0 0.0
2015-May-15 05:31N 52°31' E 004°19'0 0.0
2015-May-15 04:28N 52°31' E 004°19'0 0.0
2015-May-15 03:33N 52°31' E 004°19'0 0.1
2015-May-15 02:33N 52°31' E 004°19'0 0.0
2015-May-15 01:32N 52°31' E 004°19'0 0.0
2015-May-15 00:29N 52°31' E 004°20'0 0.0
2015-May-14 23:32N 52°31' E 004°19'0 0.1
2015-May-14 22:31N 52°31' E 004°19'0 0.0
2015-May-14 21:31N 52°31' E 004°19'0 0.0
2015-May-14 20:33N 52°31' E 004°19'0 0.0
2015-May-14 19:33N 52°31' E 004°19'0 0.0
2015-May-14 18:33N 52°31' E 004°19'0 0.0
2015-May-14 17:32N 52°31' E 004°19'0 0.0
2015-May-14 16:29N 52°31' E 004°19'0 0.0
2015-May-14 15:31N 52°31' E 004°19'0 0.0
2015-May-14 14:31N 52°31' E 004°19'0 0.0
2015-May-14 10:06N 52°31' E 004°20'0 0.1
2015-May-14 09:33N 52°31' E 004°19'0 0.0
2015-May-14 08:32N 52°31' E 004°19'0 0.0
2015-May-14 07:32N 52°31' E 004°20'0 0.0
2015-May-14 06:33N 52°31' E 004°20'0 0.0
2015-May-14 05:33N 52°31' E 004°20'0 0.0
2015-May-14 04:32N 52°31' E 004°20'  

Dump ship's entire track history